sensor_id;sensor_type;location;lat;lon;timestamp;pressure;altitude;pressure_sealevel;temperature;humidity
38289;BME280;24092;53.370;-6.588;2023-02-12T00:00:17;102956.79;;;8.62;100.00
38289;BME280;24092;53.370;-6.588;2023-02-12T00:02:44;102954.31;;;8.56;100.00
38289;BME280;24092;53.370;-6.588;2023-02-12T00:05:11;102956.34;;;7.84;100.00
38289;BME280;24092;53.370;-6.588;2023-02-12T00:07:38;102959.32;;;7.73;100.00
38289;BME280;24092;53.370;-6.588;2023-02-12T00:10:06;102961.55;;;7.28;100.00
38289;BME280;24092;53.370;-6.588;2023-02-12T00:12:33;102962.59;;;5.74;100.00
38289;BME280;24092;53.370;-6.588;2023-02-12T00:15:00;102962.02;;;5.28;100.00
38289;BME280;24092;53.370;-6.588;2023-02-12T00:17:27;102962.53;;;4.76;100.00
38289;BME280;24092;53.370;-6.588;2023-02-12T00:19:55;102964.05;;;4.79;100.00
38289;BME280;24092;53.370;-6.588;2023-02-12T00:22:22;102967.63;;;4.07;100.00
38289;BME280;24092;53.370;-6.588;2023-02-12T00:24:49;102960.26;;;3.92;100.00
38289;BME280;24092;53.370;-6.588;2023-02-12T00:27:15;102956.40;;;4.20;100.00
38289;BME280;24092;53.370;-6.588;2023-02-12T00:29:42;102956.31;;;4.32;100.00
38289;BME280;24092;53.370;-6.588;2023-02-12T00:32:09;102952.42;;;4.65;100.00
38289;BME280;24092;53.370;-6.588;2023-02-12T00:34:37;102958.22;;;5.17;100.00
38289;BME280;24092;53.370;-6.588;2023-02-12T00:37:04;102954.47;;;5.81;100.00
38289;BME280;24092;53.370;-6.588;2023-02-12T00:39:36;102944.61;;;6.45;100.00
38289;BME280;24092;53.370;-6.588;2023-02-12T00:42:03;102948.90;;;6.96;100.00
38289;BME280;24092;53.370;-6.588;2023-02-12T00:44:31;102943.84;;;7.24;100.00
38289;BME280;24092;53.370;-6.588;2023-02-12T00:46:58;102939.69;;;7.37;100.00
38289;BME280;24092;53.370;-6.588;2023-02-12T00:49:25;102939.62;;;7.88;100.00
38289;BME280;24092;53.370;-6.588;2023-02-12T00:51:52;102932.12;;;7.80;100.00
38289;BME280;24092;53.370;-6.588;2023-02-12T00:54:20;102931.61;;;8.10;100.00
38289;BME280;24092;53.370;-6.588;2023-02-12T00:56:46;102930.13;;;8.02;100.00
38289;BME280;24092;53.370;-6.588;2023-02-12T00:59:14;102929.12;;;8.06;100.00
38289;BME280;24092;53.370;-6.588;2023-02-12T01:01:41;102932.94;;;7.80;100.00
38289;BME280;24092;53.370;-6.588;2023-02-12T01:04:07;102928.85;;;7.73;100.00
38289;BME280;24092;53.370;-6.588;2023-02-12T01:06:34;102924.96;;;8.29;100.00
38289;BME280;24092;53.370;-6.588;2023-02-12T01:09:02;102919.20;;;8.69;100.00
38289;BME280;24092;53.370;-6.588;2023-02-12T01:11:28;102919.20;;;8.34;100.00
38289;BME280;24092;53.370;-6.588;2023-02-12T01:13:56;102910.17;;;7.58;100.00
38289;BME280;24092;53.370;-6.588;2023-02-12T01:16:23;102898.29;;;2.93;100.00
38289;BME280;24092;53.370;-6.588;2023-02-12T01:18:52;102901.16;;;3.06;100.00
38289;BME280;24092;53.370;-6.588;2023-02-12T01:21:22;102905.24;;;4.55;100.00
38289;BME280;24092;53.370;-6.588;2023-02-12T01:23:55;102897.38;;;5.78;100.00
38289;BME280;24092;53.370;-6.588;2023-02-12T01:26:24;102894.97;;;6.14;100.00
38289;BME280;24092;53.370;-6.588;2023-02-12T01:28:53;102894.67;;;6.58;100.00
38289;BME280;24092;53.370;-6.588;2023-02-12T01:31:22;102885.18;;;8.01;100.00
38289;BME280;24092;53.370;-6.588;2023-02-12T01:33:56;102882.45;;;8.08;100.00
38289;BME280;24092;53.370;-6.588;2023-02-12T01:36:24;102880.76;;;8.23;100.00
38289;BME280;24092;53.370;-6.588;2023-02-12T01:38:51;102881.18;;;8.78;100.00
38289;BME280;24092;53.370;-6.588;2023-02-12T01:41:21;102882.76;;;8.86;100.00
38289;BME280;24092;53.370;-6.588;2023-02-12T01:44:13;102881.67;;;8.60;100.00
38289;BME280;24092;53.370;-6.588;2023-02-12T01:46:56;102878.80;;;8.71;100.00
38289;BME280;24092;53.370;-6.588;2023-02-12T01:49:29;102879.51;;;8.20;100.00
38289;BME280;24092;53.370;-6.588;2023-02-12T01:52:00;102880.68;;;8.25;100.00
38289;BME280;24092;53.370;-6.588;2023-02-12T01:54:30;102879.73;;;8.36;100.00
38289;BME280;24092;53.370;-6.588;2023-02-12T01:56:59;102878.01;;;8.55;100.00
38289;BME280;24092;53.370;-6.588;2023-02-12T01:59:28;102877.92;;;7.67;100.00
38289;BME280;24092;53.370;-6.588;2023-02-12T02:01:57;102870.49;;;7.88;100.00
38289;BME280;24092;53.370;-6.588;2023-02-12T02:04:28;102872.50;;;8.25;100.00
38289;BME280;24092;53.370;-6.588;2023-02-12T02:06:57;102869.29;;;8.83;100.00
38289;BME280;24092;53.370;-6.588;2023-02-12T02:09:26;102866.72;;;8.60;100.00
38289;BME280;24092;53.370;-6.588;2023-02-12T02:11:54;102865.85;;;8.46;100.00
38289;BME280;24092;53.370;-6.588;2023-02-12T02:14:21;102865.23;;;8.33;100.00
38289;BME280;24092;53.370;-6.588;2023-02-12T02:17:06;102866.47;;;8.59;100.00
38289;BME280;24092;53.370;-6.588;2023-02-12T02:19:54;102864.32;;;7.95;100.00
38289;BME280;24092;53.370;-6.588;2023-02-12T02:22:34;102866.22;;;7.67;100.00
38289;BME280;24092;53.370;-6.588;2023-02-12T02:28:52;102868.28;;;5.84;100.00
38289;BME280;24092;53.370;-6.588;2023-02-12T02:31:26;102867.11;;;6.36;100.00
38289;BME280;24092;53.370;-6.588;2023-02-12T02:34:01;102870.09;;;6.90;100.00
38289;BME280;24092;53.370;-6.588;2023-02-12T02:36:35;102868.17;;;6.18;100.00
38289;BME280;24092;53.370;-6.588;2023-02-12T02:39:08;102868.78;;;5.28;100.00
38289;BME280;24092;53.370;-6.588;2023-02-12T02:41:45;102867.43;;;5.55;100.00
38289;BME280;24092;53.370;-6.588;2023-02-12T02:44:18;102867.96;;;5.65;100.00
38289;BME280;24092;53.370;-6.588;2023-02-12T02:46:49;102866.78;;;6.52;100.00
38289;BME280;24092;53.370;-6.588;2023-02-12T02:49:27;102865.47;;;6.40;100.00
38289;BME280;24092;53.370;-6.588;2023-02-12T02:52:08;102862.37;;;6.94;100.00
38289;BME280;24092;53.370;-6.588;2023-02-12T02:54:40;102860.45;;;7.53;100.00
38289;BME280;24092;53.370;-6.588;2023-02-12T02:57:20;102863.29;;;7.13;100.00
38289;BME280;24092;53.370;-6.588;2023-02-12T02:59:53;102860.99;;;7.33;100.00
38289;BME280;24092;53.370;-6.588;2023-02-12T03:02:24;102863.60;;;6.69;100.00
38289;BME280;24092;53.370;-6.588;2023-02-12T03:04:56;102867.15;;;6.67;100.00
38289;BME280;24092;53.370;-6.588;2023-02-12T03:07:28;102863.09;;;7.73;100.00
38289;BME280;24092;53.370;-6.588;2023-02-12T03:10:02;102863.42;;;8.57;100.00
38289;BME280;24092;53.370;-6.588;2023-02-12T03:12:34;102857.47;;;7.33;100.00
38289;BME280;24092;53.370;-6.588;2023-02-12T03:15:08;102858.07;;;6.42;100.00
38289;BME280;24092;53.370;-6.588;2023-02-12T03:17:40;102852.75;;;6.95;100.00
38289;BME280;24092;53.370;-6.588;2023-02-12T03:20:13;102853.36;;;7.74;100.00
38289;BME280;24092;53.370;-6.588;2023-02-12T03:22:46;102850.22;;;6.60;100.00
38289;BME280;24092;53.370;-6.588;2023-02-12T03:25:17;102847.24;;;7.68;100.00
38289;BME280;24092;53.370;-6.588;2023-02-12T03:27:49;102848.45;;;8.04;100.00
38289;BME280;24092;53.370;-6.588;2023-02-12T03:30:21;102847.51;;;7.37;100.00
38289;BME280;24092;53.370;-6.588;2023-02-12T03:32:56;102844.59;;;6.52;100.00
38289;BME280;24092;53.370;-6.588;2023-02-12T03:35:31;102845.44;;;7.36;100.00
38289;BME280;24092;53.370;-6.588;2023-02-12T03:38:04;102840.60;;;7.25;100.00
38289;BME280;24092;53.370;-6.588;2023-02-12T03:40:39;102841.30;;;8.13;100.00
38289;BME280;24092;53.370;-6.588;2023-02-12T03:43:13;102838.02;;;7.05;100.00
38289;BME280;24092;53.370;-6.588;2023-02-12T03:45:45;102840.45;;;8.22;100.00
38289;BME280;24092;53.370;-6.588;2023-02-12T03:48:26;102836.17;;;6.43;100.00
38289;BME280;24092;53.370;-6.588;2023-02-12T03:50:57;102830.79;;;5.71;100.00
38289;BME280;24092;53.370;-6.588;2023-02-12T03:53:26;102830.73;;;7.88;100.00
38289;BME280;24092;53.370;-6.588;2023-02-12T03:55:58;102823.41;;;7.89;100.00
38289;BME280;24092;53.370;-6.588;2023-02-12T03:58:29;102822.65;;;6.09;100.00
38289;BME280;24092;53.370;-6.588;2023-02-12T04:00:59;102812.24;;;7.64;100.00
38289;BME280;24092;53.370;-6.588;2023-02-12T04:03:28;102815.94;;;8.05;100.00
38289;BME280;24092;53.370;-6.588;2023-02-12T04:05:55;102816.26;;;7.95;100.00
38289;BME280;24092;53.370;-6.588;2023-02-12T04:08:23;102813.44;;;6.27;100.00
38289;BME280;24092;53.370;-6.588;2023-02-12T04:11:06;102815.47;;;5.98;100.00
38289;BME280;24092;53.370;-6.588;2023-02-12T04:13:42;102813.24;;;7.98;100.00
38289;BME280;24092;53.370;-6.588;2023-02-12T04:16:21;102811.97;;;7.58;100.00
38289;BME280;24092;53.370;-6.588;2023-02-12T04:18:51;102814.74;;;8.44;100.00
38289;BME280;24092;53.370;-6.588;2023-02-12T04:21:30;102818.78;;;8.30;100.00
38289;BME280;24092;53.370;-6.588;2023-02-12T04:24:08;102819.00;;;7.34;100.00
38289;BME280;24092;53.370;-6.588;2023-02-12T04:26:47;102825.87;;;6.49;100.00
38289;BME280;24092;53.370;-6.588;2023-02-12T04:29:23;102825.60;;;5.78;100.00
38289;BME280;24092;53.370;-6.588;2023-02-12T04:31:55;102825.29;;;5.77;100.00
38289;BME280;24092;53.370;-6.588;2023-02-12T04:34:31;102825.81;;;5.86;100.00
38289;BME280;24092;53.370;-6.588;2023-02-12T04:37:04;102821.78;;;7.65;100.00
38289;BME280;24092;53.370;-6.588;2023-02-12T04:39:36;102817.48;;;7.92;100.00
38289;BME280;24092;53.370;-6.588;2023-02-12T04:42:05;102821.69;;;6.86;100.00
38289;BME280;24092;53.370;-6.588;2023-02-12T04:44:34;102828.62;;;6.64;100.00
38289;BME280;24092;53.370;-6.588;2023-02-12T04:47:02;102828.69;;;5.78;100.00
38289;BME280;24092;53.370;-6.588;2023-02-12T04:49:30;102831.19;;;5.22;100.00
38289;BME280;24092;53.370;-6.588;2023-02-12T04:51:56;102837.89;;;3.52;100.00
38289;BME280;24092;53.370;-6.588;2023-02-12T04:54:24;102839.72;;;4.11;100.00
38289;BME280;24092;53.370;-6.588;2023-02-12T04:56:51;102838.10;;;3.17;100.00
38289;BME280;24092;53.370;-6.588;2023-02-12T04:59:19;102835.46;;;3.23;100.00
38289;BME280;24092;53.370;-6.588;2023-02-12T05:01:46;102837.02;;;5.12;100.00
38289;BME280;24092;53.370;-6.588;2023-02-12T05:04:15;102837.01;;;5.50;100.00
38289;BME280;24092;53.370;-6.588;2023-02-12T05:06:43;102842.93;;;4.18;100.00
38289;BME280;24092;53.370;-6.588;2023-02-12T05:09:14;102839.84;;;4.34;100.00
38289;BME280;24092;53.370;-6.588;2023-02-12T05:11:42;102838.17;;;3.70;100.00
38289;BME280;24092;53.370;-6.588;2023-02-12T05:14:10;102837.24;;;2.21;100.00
38289;BME280;24092;53.370;-6.588;2023-02-12T05:16:37;102838.50;;;2.60;100.00
38289;BME280;24092;53.370;-6.588;2023-02-12T05:19:04;102840.03;;;2.87;100.00
38289;BME280;24092;53.370;-6.588;2023-02-12T05:21:31;102842.12;;;2.43;100.00
38289;BME280;24092;53.370;-6.588;2023-02-12T05:24:00;102837.43;;;1.92;100.00
38289;BME280;24092;53.370;-6.588;2023-02-12T05:26:27;102839.94;;;1.35;100.00
38289;BME280;24092;53.370;-6.588;2023-02-12T05:28:54;102841.42;;;0.84;100.00
38289;BME280;24092;53.370;-6.588;2023-02-12T05:31:21;102839.40;;;2.36;100.00
38289;BME280;24092;53.370;-6.588;2023-02-12T05:33:49;102833.37;;;2.62;100.00
38289;BME280;24092;53.370;-6.588;2023-02-12T05:36:19;102839.47;;;4.24;100.00
38289;BME280;24092;53.370;-6.588;2023-02-12T05:38:47;102837.45;;;3.64;100.00
38289;BME280;24092;53.370;-6.588;2023-02-12T05:41:16;102835.43;;;2.10;100.00
38289;BME280;24092;53.370;-6.588;2023-02-12T05:43:45;102828.36;;;1.98;100.00
38289;BME280;24092;53.370;-6.588;2023-02-12T05:46:12;102831.12;;;2.23;100.00
38289;BME280;24092;53.370;-6.588;2023-02-12T05:48:39;102836.15;;;1.76;100.00
38289;BME280;24092;53.370;-6.588;2023-02-12T05:51:09;102833.10;;;2.10;100.00
38289;BME280;24092;53.370;-6.588;2023-02-12T05:53:39;102831.11;;;1.78;100.00
38289;BME280;24092;53.370;-6.588;2023-02-12T05:56:08;102827.57;;;2.38;100.00
38289;BME280;24092;53.370;-6.588;2023-02-12T05:58:37;102824.59;;;1.76;100.00
38289;BME280;24092;53.370;-6.588;2023-02-12T06:01:09;102823.63;;;2.82;100.00
38289;BME280;24092;53.370;-6.588;2023-02-12T06:03:36;102830.97;;;3.44;100.00
38289;BME280;24092;53.370;-6.588;2023-02-12T06:06:05;102831.45;;;2.57;100.00
38289;BME280;24092;53.370;-6.588;2023-02-12T06:08:33;102834.92;;;3.72;100.00
38289;BME280;24092;53.370;-6.588;2023-02-12T06:11:01;102825.72;;;1.93;100.00
38289;BME280;24092;53.370;-6.588;2023-02-12T06:13:30;102826.44;;;2.77;100.00
38289;BME280;24092;53.370;-6.588;2023-02-12T06:15:57;102831.95;;;4.20;100.00
38289;BME280;24092;53.370;-6.588;2023-02-12T06:18:25;102825.35;;;6.50;100.00
38289;BME280;24092;53.370;-6.588;2023-02-12T06:20:52;102826.50;;;6.49;100.00
38289;BME280;24092;53.370;-6.588;2023-02-12T06:23:20;102819.67;;;7.18;100.00
38289;BME280;24092;53.370;-6.588;2023-02-12T06:25:48;102817.43;;;7.30;100.00
38289;BME280;24092;53.370;-6.588;2023-02-12T06:28:16;102815.37;;;7.21;100.00
38289;BME280;24092;53.370;-6.588;2023-02-12T06:30:43;102814.58;;;7.17;100.00
38289;BME280;24092;53.370;-6.588;2023-02-12T06:33:10;102812.60;;;7.37;100.00
38289;BME280;24092;53.370;-6.588;2023-02-12T06:35:37;102809.37;;;7.89;100.00
38289;BME280;24092;53.370;-6.588;2023-02-12T06:38:05;102813.17;;;7.43;100.00
38289;BME280;24092;53.370;-6.588;2023-02-12T06:40:32;102809.34;;;7.65;100.00
38289;BME280;24092;53.370;-6.588;2023-02-12T06:42:59;102806.76;;;7.65;100.00
38289;BME280;24092;53.370;-6.588;2023-02-12T06:45:26;102806.48;;;7.87;100.00
38289;BME280;24092;53.370;-6.588;2023-02-12T06:47:53;102802.09;;;8.00;100.00
38289;BME280;24092;53.370;-6.588;2023-02-12T06:50:20;102799.83;;;7.80;100.00
38289;BME280;24092;53.370;-6.588;2023-02-12T06:52:48;102797.27;;;7.97;100.00
38289;BME280;24092;53.370;-6.588;2023-02-12T06:55:16;102797.58;;;7.52;100.00
38289;BME280;24092;53.370;-6.588;2023-02-12T06:57:43;102794.97;;;7.82;100.00
38289;BME280;24092;53.370;-6.588;2023-02-12T07:00:11;102797.88;;;8.39;100.00
38289;BME280;24092;53.370;-6.588;2023-02-12T07:02:39;102803.07;;;8.10;100.00
38289;BME280;24092;53.370;-6.588;2023-02-12T07:05:07;102802.30;;;7.94;100.00
38289;BME280;24092;53.370;-6.588;2023-02-12T07:07:35;102801.94;;;7.90;100.00
38289;BME280;24092;53.370;-6.588;2023-02-12T07:10:02;102802.68;;;7.04;100.00
38289;BME280;24092;53.370;-6.588;2023-02-12T07:12:29;102801.81;;;8.07;100.00
38289;BME280;24092;53.370;-6.588;2023-02-12T07:14:56;102802.00;;;8.20;100.00
38289;BME280;24092;53.370;-6.588;2023-02-12T07:17:23;102806.71;;;8.83;100.00
38289;BME280;24092;53.370;-6.588;2023-02-12T07:19:50;102803.30;;;8.56;100.00
38289;BME280;24092;53.370;-6.588;2023-02-12T07:22:18;102805.01;;;6.96;100.00
38289;BME280;24092;53.370;-6.588;2023-02-12T07:24:45;102807.83;;;6.94;100.00
38289;BME280;24092;53.370;-6.588;2023-02-12T07:27:12;102810.39;;;7.48;100.00
38289;BME280;24092;53.370;-6.588;2023-02-12T07:29:40;102807.78;;;7.34;100.00
38289;BME280;24092;53.370;-6.588;2023-02-12T07:32:07;102813.71;;;8.09;100.00
38289;BME280;24092;53.370;-6.588;2023-02-12T07:34:34;102814.44;;;8.05;100.00
38289;BME280;24092;53.370;-6.588;2023-02-12T07:37:01;102816.73;;;8.71;100.00
38289;BME280;24092;53.370;-6.588;2023-02-12T07:39:28;102815.40;;;8.47;100.00
38289;BME280;24092;53.370;-6.588;2023-02-12T07:41:55;102821.94;;;8.61;100.00
38289;BME280;24092;53.370;-6.588;2023-02-12T07:44:22;102824.59;;;7.84;100.00
38289;BME280;24092;53.370;-6.588;2023-02-12T07:46:50;102827.66;;;8.09;100.00
38289;BME280;24092;53.370;-6.588;2023-02-12T07:49:19;102828.67;;;7.23;100.00
38289;BME280;24092;53.370;-6.588;2023-02-12T07:51:46;102828.76;;;7.96;100.00
38289;BME280;24092;53.370;-6.588;2023-02-12T07:54:15;102828.53;;;7.25;100.00
38289;BME280;24092;53.370;-6.588;2023-02-12T07:56:43;102829.57;;;7.85;100.00
38289;BME280;24092;53.370;-6.588;2023-02-12T07:59:12;102831.42;;;8.19;100.00
38289;BME280;24092;53.370;-6.588;2023-02-12T08:01:41;102831.79;;;7.20;100.00
38289;BME280;24092;53.370;-6.588;2023-02-12T08:04:10;102838.76;;;8.19;100.00
38289;BME280;24092;53.370;-6.588;2023-02-12T08:06:39;102838.43;;;8.74;100.00
38289;BME280;24092;53.370;-6.588;2023-02-12T08:09:09;102838.74;;;8.97;100.00
38289;BME280;24092;53.370;-6.588;2023-02-12T08:11:37;102841.49;;;8.81;100.00
38289;BME280;24092;53.370;-6.588;2023-02-12T08:14:05;102844.65;;;8.56;100.00
38289;BME280;24092;53.370;-6.588;2023-02-12T08:16:35;102840.79;;;7.49;100.00
38289;BME280;24092;53.370;-6.588;2023-02-12T08:19:04;102844.26;;;8.79;100.00
38289;BME280;24092;53.370;-6.588;2023-02-12T08:21:32;102847.16;;;8.87;100.00
38289;BME280;24092;53.370;-6.588;2023-02-12T08:23:59;102846.39;;;7.55;100.00
38289;BME280;24092;53.370;-6.588;2023-02-12T08:26:28;102846.59;;;7.43;100.00
38289;BME280;24092;53.370;-6.588;2023-02-12T08:28:58;102850.31;;;7.96;100.00
38289;BME280;24092;53.370;-6.588;2023-02-12T08:31:27;102847.87;;;8.04;100.00
38289;BME280;24092;53.370;-6.588;2023-02-12T08:33:55;102848.40;;;7.95;100.00
38289;BME280;24092;53.370;-6.588;2023-02-12T08:36:23;102846.53;;;7.40;100.00
38289;BME280;24092;53.370;-6.588;2023-02-12T08:38:51;102844.56;;;7.54;100.00
38289;BME280;24092;53.370;-6.588;2023-02-12T08:41:21;102850.75;;;8.03;100.00
38289;BME280;24092;53.370;-6.588;2023-02-12T08:43:49;102847.03;;;7.63;100.00
38289;BME280;24092;53.370;-6.588;2023-02-12T08:46:20;102849.85;;;6.92;100.00
38289;BME280;24092;53.370;-6.588;2023-02-12T08:48:50;102844.37;;;7.23;100.00
38289;BME280;24092;53.370;-6.588;2023-02-12T08:51:20;102853.16;;;7.12;100.00
38289;BME280;24092;53.370;-6.588;2023-02-12T08:53:51;102852.77;;;6.80;100.00
38289;BME280;24092;53.370;-6.588;2023-02-12T08:56:20;102852.84;;;7.37;100.00
38289;BME280;24092;53.370;-6.588;2023-02-12T08:58:47;102851.03;;;7.81;100.00
38289;BME280;24092;53.370;-6.588;2023-02-12T09:01:17;102853.43;;;7.71;100.00
38289;BME280;24092;53.370;-6.588;2023-02-12T09:03:46;102849.90;;;7.84;100.00
38289;BME280;24092;53.370;-6.588;2023-02-12T09:06:14;102843.07;;;7.95;100.00
38289;BME280;24092;53.370;-6.588;2023-02-12T09:08:43;102843.14;;;8.26;100.00
38289;BME280;24092;53.370;-6.588;2023-02-12T09:11:11;102845.09;;;8.01;100.00
38289;BME280;24092;53.370;-6.588;2023-02-12T09:13:39;102840.20;;;8.05;100.00
38289;BME280;24092;53.370;-6.588;2023-02-12T09:16:06;102844.46;;;7.31;100.00
38289;BME280;24092;53.370;-6.588;2023-02-12T09:18:34;102843.41;;;7.71;100.00
38289;BME280;24092;53.370;-6.588;2023-02-12T09:21:03;102837.91;;;8.46;100.00
38289;BME280;24092;53.370;-6.588;2023-02-12T09:23:31;102834.63;;;7.73;100.00
38289;BME280;24092;53.370;-6.588;2023-02-12T09:25:59;102836.26;;;8.23;100.00
38289;BME280;24092;53.370;-6.588;2023-02-12T09:28:29;102836.95;;;7.64;100.00
38289;BME280;24092;53.370;-6.588;2023-02-12T09:30:56;102832.41;;;7.71;100.00
38289;BME280;24092;53.370;-6.588;2023-02-12T09:33:23;102825.89;;;8.06;100.00
38289;BME280;24092;53.370;-6.588;2023-02-12T09:35:51;102828.32;;;8.29;100.00
38289;BME280;24092;53.370;-6.588;2023-02-12T09:38:18;102823.44;;;8.20;100.00
38289;BME280;24092;53.370;-6.588;2023-02-12T09:40:55;102824.26;;;8.59;100.00
38289;BME280;24092;53.370;-6.588;2023-02-12T09:43:30;102822.45;;;8.58;100.00
38289;BME280;24092;53.370;-6.588;2023-02-12T09:46:02;102816.22;;;7.98;100.00
38289;BME280;24092;53.370;-6.588;2023-02-12T09:48:41;102821.32;;;8.46;100.00
38289;BME280;24092;53.370;-6.588;2023-02-12T09:51:13;102812.99;;;8.21;100.00
38289;BME280;24092;53.370;-6.588;2023-02-12T09:53:43;102807.80;;;7.94;100.00
38289;BME280;24092;53.370;-6.588;2023-02-12T09:56:14;102805.10;;;8.17;100.00
38289;BME280;24092;53.370;-6.588;2023-02-12T09:58:46;102799.98;;;8.19;100.00
38289;BME280;24092;53.370;-6.588;2023-02-12T10:01:16;102798.13;;;7.60;100.00
38289;BME280;24092;53.370;-6.588;2023-02-12T10:03:45;102801.59;;;8.21;100.00
38289;BME280;24092;53.370;-6.588;2023-02-12T10:06:15;102801.35;;;8.22;100.00
38289;BME280;24092;53.370;-6.588;2023-02-12T10:08:56;102803.09;;;7.95;100.00
38289;BME280;24092;53.370;-6.588;2023-02-12T10:11:44;102798.07;;;7.59;100.00
38289;BME280;24092;53.370;-6.588;2023-02-12T10:14:27;102799.26;;;7.15;100.00
38289;BME280;24092;53.370;-6.588;2023-02-12T10:17:05;102793.66;;;7.67;100.00
38289;BME280;24092;53.370;-6.588;2023-02-12T10:19:52;102803.09;;;6.54;100.00
38289;BME280;24092;53.370;-6.588;2023-02-12T10:22:29;102799.70;;;7.14;100.00
38289;BME280;24092;53.370;-6.588;2023-02-12T10:25:08;102800.95;;;7.18;100.00
38289;BME280;24092;53.370;-6.588;2023-02-12T10:27:45;102802.77;;;6.25;100.00
38289;BME280;24092;53.370;-6.588;2023-02-12T10:30:20;102803.37;;;6.20;100.00
38289;BME280;24092;53.370;-6.588;2023-02-12T10:32:51;102801.57;;;6.57;100.00
38289;BME280;24092;53.370;-6.588;2023-02-12T10:35:21;102797.11;;;6.18;100.00
38289;BME280;24092;53.370;-6.588;2023-02-12T10:37:54;102795.40;;;6.27;100.00
38289;BME280;24092;53.370;-6.588;2023-02-12T10:40:25;102792.64;;;5.94;100.00
38289;BME280;24092;53.370;-6.588;2023-02-12T10:42:53;102799.31;;;5.68;100.00
38289;BME280;24092;53.370;-6.588;2023-02-12T10:45:24;102800.22;;;5.37;100.00
38289;BME280;24092;53.370;-6.588;2023-02-12T10:48:03;102800.26;;;5.63;100.00
38289;BME280;24092;53.370;-6.588;2023-02-12T10:50:39;102798.11;;;4.85;100.00
38289;BME280;24092;53.370;-6.588;2023-02-12T10:53:14;102792.85;;;4.90;100.00
38289;BME280;24092;53.370;-6.588;2023-02-12T10:55:42;102792.95;;;5.11;100.00
38289;BME280;24092;53.370;-6.588;2023-02-12T10:58:18;102793.56;;;5.33;100.00
38289;BME280;24092;53.370;-6.588;2023-02-12T11:00:46;102793.81;;;5.54;100.00
38289;BME280;24092;53.370;-6.588;2023-02-12T11:03:23;102793.26;;;5.43;100.00
38289;BME280;24092;53.370;-6.588;2023-02-12T11:05:54;102786.48;;;5.18;100.00
38289;BME280;24092;53.370;-6.588;2023-02-12T11:08:31;102785.18;;;5.87;100.00
38289;BME280;24092;53.370;-6.588;2023-02-12T11:11:09;102785.01;;;6.07;100.00
38289;BME280;24092;53.370;-6.588;2023-02-12T11:13:40;102788.22;;;5.57;100.00
38289;BME280;24092;53.370;-6.588;2023-02-12T11:16:10;102786.86;;;6.10;100.00
38289;BME280;24092;53.370;-6.588;2023-02-12T11:18:37;102784.29;;;6.72;100.00
38289;BME280;24092;53.370;-6.588;2023-02-12T11:21:07;102782.70;;;6.23;100.00
38289;BME280;24092;53.370;-6.588;2023-02-12T11:23:36;102779.42;;;6.39;100.00
38289;BME280;24092;53.370;-6.588;2023-02-12T11:26:24;102775.54;;;5.70;100.00
38289;BME280;24092;53.370;-6.588;2023-02-12T11:28:54;102776.97;;;5.76;100.00
38289;BME280;24092;53.370;-6.588;2023-02-12T11:31:23;102775.67;;;5.77;100.00
38289;BME280;24092;53.370;-6.588;2023-02-12T11:34:08;102784.22;;;6.01;100.00
38289;BME280;24092;53.370;-6.588;2023-02-12T11:36:38;102781.85;;;5.35;100.00
38289;BME280;24092;53.370;-6.588;2023-02-12T11:39:16;102775.70;;;6.13;100.00
38289;BME280;24092;53.370;-6.588;2023-02-12T11:41:44;102771.70;;;5.91;100.00
38289;BME280;24092;53.370;-6.588;2023-02-12T11:44:28;102771.59;;;7.26;100.00
38289;BME280;24092;53.370;-6.588;2023-02-12T11:46:59;102764.63;;;5.82;100.00
38289;BME280;24092;53.370;-6.588;2023-02-12T11:49:29;102758.37;;;5.40;100.00
38289;BME280;24092;53.370;-6.588;2023-02-12T11:51:57;102752.59;;;5.70;100.00
38289;BME280;24092;53.370;-6.588;2023-02-12T11:54:40;102755.83;;;6.23;100.00
38289;BME280;24092;53.370;-6.588;2023-02-12T11:58:21;102755.99;;;7.87;100.00
38289;BME280;24092;53.370;-6.588;2023-02-12T12:01:12;102755.39;;;5.94;100.00
38289;BME280;24092;53.370;-6.588;2023-02-12T12:03:47;102749.57;;;5.23;100.00
38289;BME280;24092;53.370;-6.588;2023-02-12T12:06:23;102750.85;;;5.34;100.00
38289;BME280;24092;53.370;-6.588;2023-02-12T12:08:57;102747.30;;;5.44;100.00
38289;BME280;24092;53.370;-6.588;2023-02-12T12:11:30;102749.21;;;5.50;100.00
38289;BME280;24092;53.370;-6.588;2023-02-12T12:14:13;102749.10;;;5.23;100.00
38289;BME280;24092;53.370;-6.588;2023-02-12T12:16:48;102736.41;;;5.71;100.00
38289;BME280;24092;53.370;-6.588;2023-02-12T12:19:22;102729.12;;;5.27;100.00
38289;BME280;24092;53.370;-6.588;2023-02-12T12:22:02;102727.31;;;5.91;100.00
38289;BME280;24092;53.370;-6.588;2023-02-12T12:24:38;102716.84;;;6.28;100.00
38289;BME280;24092;53.370;-6.588;2023-02-12T12:27:15;102708.73;;;6.25;100.00
38289;BME280;24092;53.370;-6.588;2023-02-12T12:29:51;102701.50;;;6.36;100.00
38289;BME280;24092;53.370;-6.588;2023-02-12T12:32:22;102699.11;;;6.29;100.00
38289;BME280;24092;53.370;-6.588;2023-02-12T12:34:51;102696.93;;;6.20;100.00
38289;BME280;24092;53.370;-6.588;2023-02-12T12:40:56;102689.62;;;5.62;100.00
38289;BME280;24092;53.370;-6.588;2023-02-12T12:43:38;102687.50;;;6.35;100.00
38289;BME280;24092;53.370;-6.588;2023-02-12T12:46:27;102685.77;;;5.84;100.00
38289;BME280;24092;53.370;-6.588;2023-02-12T12:49:10;102686.50;;;6.23;100.00
38289;BME280;24092;53.370;-6.588;2023-02-12T12:51:59;102689.49;;;6.19;100.00
38289;BME280;24092;53.370;-6.588;2023-02-12T12:54:40;102684.02;;;5.66;100.00
38289;BME280;24092;53.370;-6.588;2023-02-12T12:57:18;102681.56;;;5.97;100.00
38289;BME280;24092;53.370;-6.588;2023-02-12T13:00:02;102677.90;;;6.30;100.00
38289;BME280;24092;53.370;-6.588;2023-02-12T13:03:00;102673.86;;;6.69;100.00
38289;BME280;24092;53.370;-6.588;2023-02-12T13:05:50;102667.89;;;7.71;100.00
38289;BME280;24092;53.370;-6.588;2023-02-12T13:08:32;102670.38;;;7.36;100.00